»·PEaware :: N5JL KLAS-KEGE

N5JL :: KLAS-KEGE

FLIGHT INFORMATION

Flight Status: Arrived
Operator: Privately registered:
United States
More flights under this callsign
Pilot: Jared L. (23098)
Aircraft: BOEING 737-900
(B739)
More flights by this aircraft type
Origin: KLAS McCarran Intl
United States
Destination: KEGE Eagle Co Regl
United States
More flights between these airports :: More routes between these airports
Route: TRALR9 VERKN HVE JNC RIL RLG
File this flight plan on PilotEdge
Remarks:
Altitude:
(Current/Filed)
35,000ft
Speed:
(Current/Filed)
473kts
Departed: 05-Sep-19 04:42 PM
Arrived: 05-Sep-19 06:10 PM
Distance/Time
Traveled:
444nm/1:28
Distance/Time
To Go:
Arrived

Flight Plot

Page will automatically refresh every two minutes.

Flight plan parsing failed; only flown route is shown


Map Options




Map Legend


Flown Route
Filed Route
Departure Airport
Arrival Airport
Navaid (VOR, NDB)
Fix

Horizontal Profiles

Position Reports

Time Latitude Longitude Heading Altitude Ground
Speed
05-Sep-19 15:55 36.083212 -115.170097 88 2167ft 0kts
05-Sep-19 15:56 36.083212 -115.170097 88 2167ft 0kts
05-Sep-19 15:57 36.083212 -115.170097 88 2167ft 0kts
05-Sep-19 15:58 36.083212 -115.170097 88 2167ft 0kts
05-Sep-19 15:58 36.083212 -115.170097 88 2167ft 0kts
05-Sep-19 16:00 36.083212 -115.170097 88 2167ft 0kts
05-Sep-19 16:01 36.083212 -115.170097 88 2167ft 0kts
05-Sep-19 16:01 36.083212 -115.170097 88 2167ft 0kts
05-Sep-19 16:02 36.083212 -115.170097 88 2167ft 0kts
05-Sep-19 16:04 36.083212 -115.170097 88 2167ft 0kts
05-Sep-19 16:04 36.083212 -115.170097 88 2167ft 0kts
05-Sep-19 16:05 36.083212 -115.170097 88 2167ft 0kts
05-Sep-19 16:07 36.083212 -115.170097 88 2167ft 0kts
05-Sep-19 16:07 36.083212 -115.170097 88 2167ft 0kts
05-Sep-19 16:08 36.083212 -115.170097 88 2167ft 0kts
05-Sep-19 16:09 36.083212 -115.170097 88 2167ft 0kts
05-Sep-19 16:10 36.083212 -115.170097 88 2167ft 0kts
05-Sep-19 16:11 36.083212 -115.170097 88 2167ft 0kts
05-Sep-19 16:12 36.083212 -115.170097 88 2167ft 0kts
05-Sep-19 16:13 36.083212 -115.170097 88 2167ft 0kts
05-Sep-19 16:14 36.083212 -115.170097 88 2167ft 0kts
05-Sep-19 16:15 36.083212 -115.170097 88 2167ft 0kts
05-Sep-19 16:16 36.083212 -115.170097 88 2167ft 0kts
05-Sep-19 16:17 36.083212 -115.170097 88 2167ft 0kts
05-Sep-19 16:18 36.083212 -115.170097 88 2167ft 0kts
05-Sep-19 16:19 36.083212 -115.170097 88 2167ft 0kts
05-Sep-19 16:20 36.083212 -115.170097 88 2167ft 0kts
05-Sep-19 16:21 36.083212 -115.170097 88 2167ft 0kts
05-Sep-19 16:22 36.083212 -115.170097 88 2167ft 0kts
05-Sep-19 16:23 36.083212 -115.170097 88 2167ft 0kts
05-Sep-19 16:24 36.083212 -115.170097 88 2167ft 0kts
05-Sep-19 16:25 36.083212 -115.170097 88 2167ft 0kts
05-Sep-19 16:26 36.083212 -115.170097 88 2167ft 0kts
05-Sep-19 16:27 36.083212 -115.170097 88 2167ft 0kts
05-Sep-19 16:28 36.083212 -115.170097 88 2167ft 0kts
05-Sep-19 16:29 36.083212 -115.170097 88 2167ft 0kts
05-Sep-19 16:30 36.083212 -115.170097 88 2167ft 0kts
05-Sep-19 16:31 36.083212 -115.170097 88 2167ft 0kts
05-Sep-19 16:32 36.083212 -115.170097 88 2167ft 0kts
05-Sep-19 16:33 36.083212 -115.170097 88 2167ft 0kts
05-Sep-19 16:34 36.083212 -115.170096 88 2167ft 0kts
05-Sep-19 16:35 36.082476 -115.169374 204 2167ft 14kts
05-Sep-19 16:36 36.084869 -115.167306 25 2156ft 26kts
05-Sep-19 16:37 36.091829 -115.163302 24 2123ft 23kts
05-Sep-19 16:38 36.098386 -115.159575 25 2099ft 20kts
05-Sep-19 16:39 36.099804 -115.157725 76 2090ft 0kts
05-Sep-19 16:40 36.099240 -115.156543 194 2087ft 12kts
05-Sep-19 16:41 36.076377 -115.169838 205 2374ft 172kts
05-Sep-19 16:42 36.029939 -115.198157 214 3954ft 210kts
05-Sep-19 16:43 35.988643 -115.261839 232 5542ft 248kts
05-Sep-19 16:44 35.921162 -115.283799 163 8066ft 285kts
05-Sep-19 16:45 35.866637 -115.213175 103 10557ft 318kts
05-Sep-19 16:46 35.865837 -115.099870 86 13038ft 338kts
05-Sep-19 16:47 35.899829 -114.989974 62 15561ft 353kts
05-Sep-19 16:48 35.948474 -114.881933 63 17907ft 366kts
05-Sep-19 16:49 35.991192 -114.772322 66 19660ft 385kts
05-Sep-19 16:50 36.038151 -114.650835 66 21658ft 398kts
05-Sep-19 16:51 36.086593 -114.525062 66 23543ft 410kts
05-Sep-19 16:52 36.136068 -114.396083 66 25320ft 421kts
05-Sep-19 16:53 36.185971 -114.262703 73 26994ft 429kts
05-Sep-19 16:54 36.209023 -114.117909 84 28648ft 432kts
05-Sep-19 16:55 36.226614 -113.969349 84 30171ft 439kts
05-Sep-19 16:56 36.244465 -113.818074 83 31660ft 443kts
05-Sep-19 16:57 36.262006 -113.667699 83 33259ft 440kts
05-Sep-19 16:58 36.279232 -113.518310 83 34634ft 438kts
05-Sep-19 16:59 36.296496 -113.366648 83 35223ft 455kts
05-Sep-19 17:00 36.337009 -113.217177 59 35221ft 465kts
05-Sep-19 17:01 36.424442 -113.098803 42 35218ft 469kts
05-Sep-19 17:02 36.521296 -112.989803 42 35217ft 469kts
05-Sep-19 17:03 36.618415 -112.880825 42 35219ft 469kts
05-Sep-19 17:04 36.717413 -112.774666 39 35257ft 471kts
05-Sep-19 17:05 36.818136 -112.669829 40 35258ft 470kts
05-Sep-19 17:06 36.918222 -112.565041 40 35259ft 470kts
05-Sep-19 17:07 37.018652 -112.459534 40 35259ft 470kts
05-Sep-19 17:08 37.118712 -112.354021 40 35256ft 470kts
05-Sep-19 17:09 37.218534 -112.248430 40 35351ft 471kts
05-Sep-19 17:10 37.318629 -112.142140 40 35437ft 470kts
05-Sep-19 17:11 37.415026 -112.032212 46 35417ft 469kts
05-Sep-19 17:12 37.505835 -111.913084 46 35336ft 469kts
05-Sep-19 17:13 37.596511 -111.794493 46 35275ft 469kts
05-Sep-19 17:14 37.686900 -111.675832 46 35275ft 469kts
05-Sep-19 17:15 37.777466 -111.556470 46 35277ft 469kts
05-Sep-19 17:16 37.867804 -111.436966 46 35282ft 469kts
05-Sep-19 17:17 37.957740 -111.317536 46 35284ft 469kts
05-Sep-19 17:18 38.047843 -111.197455 46 35284ft 468kts
05-Sep-19 17:19 38.137252 -111.077835 46 35268ft 469kts
05-Sep-19 17:20 38.226708 -110.957689 46 35205ft 469kts
05-Sep-19 17:21 38.316195 -110.837029 46 35163ft 468kts
05-Sep-19 17:22 38.403408 -110.714025 55 35184ft 468kts
05-Sep-19 17:23 38.463115 -110.567015 66 35175ft 469kts
05-Sep-19 17:24 38.515691 -110.414613 66 35175ft 469kts
05-Sep-19 17:25 38.566354 -110.267606 66 35172ft 469kts
05-Sep-19 17:26 38.618636 -110.115090 66 35169ft 469kts
05-Sep-19 17:27 38.670984 -109.961506 66 35147ft 469kts
05-Sep-19 17:28 38.722766 -109.808819 66 35138ft 468kts
05-Sep-19 17:29 38.774482 -109.655504 66 35138ft 467kts
05-Sep-19 17:30 38.816304 -109.530941 66 35138ft 466kts
05-Sep-19 17:31 38.867349 -109.378144 66 35139ft 466kts
05-Sep-19 17:32 38.918348 -109.224759 66 35194ft 466kts
05-Sep-19 17:33 38.968950 -109.071670 66 35244ft 465kts
05-Sep-19 17:34 39.019406 -108.918169 67 35182ft 465kts
05-Sep-19 17:35 39.071630 -108.765878 60 35180ft 464kts
05-Sep-19 17:36 39.135206 -108.621991 59 35173ft 463kts
05-Sep-19 17:37 39.198941 -108.477675 59 35174ft 465kts
05-Sep-19 17:38 39.261842 -108.334557 60 35173ft 463kts
05-Sep-19 17:39 39.323951 -108.192629 60 35222ft 462kts
05-Sep-19 17:40 39.382924 -108.057178 60 35468ft 412kts
05-Sep-19 17:41 39.439589 -107.926500 61 33994ft 412kts
05-Sep-19 17:42 39.495412 -107.797247 61 32480ft 400kts
05-Sep-19 17:43 39.546472 -107.672960 65 30989ft 392kts
05-Sep-19 17:44 39.594305 -107.545321 64 29491ft 394kts
05-Sep-19 17:45 39.642707 -107.416914 64 28003ft 399kts
05-Sep-19 17:46 39.691594 -107.286656 64 26505ft 401kts
05-Sep-19 17:47 39.740387 -107.156071 64 24412ft 404kts
05-Sep-19 17:48 39.789521 -107.023664 64 22214ft 408kts
05-Sep-19 17:49 39.838550 -106.890899 64 20017ft 406kts
05-Sep-19 17:50 39.887569 -106.757602 64 19538ft 408kts
05-Sep-19 17:51 39.936457 -106.624084 64 19539ft 407kts
05-Sep-19 17:52 39.980805 -106.502475 64 19281ft 349kts
05-Sep-19 17:53 40.016667 -106.385942 62 18199ft 343kts
05-Sep-19 17:54 40.090531 -106.368871 311 17291ft 294kts
05-Sep-19 17:55 40.115480 -106.465561 279 17073ft 284kts
05-Sep-19 17:56 40.128457 -106.567494 278 17073ft 284kts
05-Sep-19 17:58 40.078176 -106.618890 152 17113ft 288kts
05-Sep-19 17:59 40.039067 -106.530680 99 17076ft 288kts
05-Sep-19 18:00 40.057262 -106.431164 69 17074ft 288kts
05-Sep-19 18:01 40.026614 -106.355753 184 17113ft 287kts
05-Sep-19 18:02 39.972609 -106.424557 213 17100ft 286kts
05-Sep-19 18:03 39.900221 -106.469165 204 15798ft 283kts
05-Sep-19 18:04 39.830715 -106.508829 204 14475ft 262kts
05-Sep-19 18:05 39.765106 -106.543160 198 14113ft 249kts
05-Sep-19 18:06 39.696074 -106.575113 224 14075ft 266kts
05-Sep-19 18:07 39.679587 -106.661051 260 12839ft 255kts
05-Sep-19 18:08 39.666058 -106.754178 258 10503ft 276kts
05-Sep-19 18:09 39.650882 -106.856174 260 7420ft 273kts
05-Sep-19 18:10 39.641756 -106.924390 266 6548ft 0kts

Navigation Log

Ident Type
Flight plan parsing failed, navigation log unavailable